Time;durP1;ratioP1;P1;durP2;ratioP2;P2;SDS_P1;SDS_P2;PMS_P1;PMS_P2;Temp;Humidity;BMP_temperature;BMP_pressure;BME280_temperature;BME280_humidity;BME280_pressure;Samples;Min_cycle;Max_cycle;Signal;HPM_P1;HPM_P2
2021/12/19 00:00:44;;;;;;;69.45;32.80;;;;;;;4.51;65.34;100208.91;5092901;28;20398;-49
2021/12/19 00:11:09;;;;;;;84.82;34.75;;;;;;;4.36;64.54;100190.16;5094055;28;20490;-51
2021/12/19 00:13:36;;;;;;;88.35;33.47;;;;;;;4.18;64.66;100190.66;5092642;28;20027;-48
2021/12/19 00:16:02;;;;;;;83.15;33.20;;;;;;;4.13;64.92;100194.59;5093968;28;20502;-49
2021/12/19 00:18:28;;;;;;;87.57;33.78;;;;;;;4.06;64.94;100191.66;5092599;28;20105;-48
2021/12/19 00:20:54;;;;;;;101.43;34.42;;;;;;;3.97;64.78;100200.19;5092532;28;20054;-49
2021/12/19 00:23:19;;;;;;;71.05;31.52;;;;;;;3.89;65.42;100186.97;5092466;28;20173;-49
2021/12/19 00:25:45;;;;;;;55.05;29.98;;;;;;;3.86;65.17;100185.41;5092404;28;20115;-49
2021/12/19 00:28:11;;;;;;;56.63;29.30;;;;;;;3.94;65.25;100179.63;5093715;28;20020;-49
2021/12/19 00:30:36;;;;;;;60.40;30.40;;;;;;;3.99;65.76;100170.53;5093401;28;20450;-48
2021/12/19 00:33:02;;;;;;;66.72;29.73;;;;;;;4.08;65.13;100166.38;5093550;28;20054;-48
2021/12/19 00:35:28;;;;;;;83.10;32.20;;;;;;;4.11;64.96;100175.72;5092229;28;20020;-49
2021/12/19 00:37:54;;;;;;;373.73;265.10;;;;;;;4.14;64.99;100168.47;5092145;28;20043;-48
2021/12/19 00:40:21;;;;;;;135.43;53.92;;;;;;;4.18;65.49;100169.88;5092065;28;20028;-48
2021/12/19 00:43:03;;;;;;;301.98;239.45;;;;;;;4.12;65.17;100162.59;5092072;28;20085;-49
2021/12/19 00:45:33;;;;;;;186.63;36.00;;;;;;;4.16;65.19;100163.16;5093379;28;20081;-49
2021/12/19 00:48:01;;;;;;;123.45;71.07;;;;;;;4.16;65.23;100158.78;5093334;28;20028;-49
2021/12/19 00:50:28;;;;;;;78.22;39.28;;;;;;;4.20;65.22;100141.19;5091895;28;20141;-48
2021/12/19 00:52:54;;;;;;;75.88;29.58;;;;;;;4.23;65.00;100140.13;5091032;28;20406;-49
2021/12/19 00:55:21;;;;;;;127.03;32.70;;;;;;;4.16;64.89;100138.00;5093130;28;20027;-49
2021/12/19 00:57:48;;;;;;;84.05;30.08;;;;;;;4.08;64.94;100134.38;5093144;28;20027;-50
2021/12/19 01:00:16;;;;;;;114.65;29.80;;;;;;;3.92;65.56;100135.59;5093047;28;20020;-48
2021/12/19 01:02:42;;;;;;;58.70;28.83;;;;;;;3.90;65.67;100131.47;5093021;28;20030;-48
2021/12/19 01:05:09;;;;;;;63.75;37.08;;;;;;;3.95;65.63;100131.94;5091700;28;20383;-49
2021/12/19 01:07:35;;;;;;;81.88;28.05;;;;;;;3.96;65.20;100128.38;5091632;28;20401;-48
2021/12/19 01:10:01;;;;;;;62.60;26.08;;;;;;;3.82;65.10;100120.88;5091676;28;20305;-48
2021/12/19 01:12:27;;;;;;;124.40;46.03;;;;;;;3.68;65.63;100119.34;5091415;28;20527;-48
2021/12/19 01:14:53;;;;;;;103.63;31.95;;;;;;;3.67;65.79;100125.50;5092788;28;20023;-49
2021/12/19 01:17:19;;;;;;;63.95;29.17;;;;;;;3.62;65.49;100123.25;5091460;28;20111;-48
2021/12/19 01:19:45;;;;;;;80.63;46.95;;;;;;;3.67;66.38;100130.69;5091410;28;20036;-48
2021/12/19 01:22:12;;;;;;;68.13;28.33;;;;;;;3.76;66.06;100127.38;5092669;28;20020;-49
2021/12/19 01:24:38;;;;;;;57.78;25.73;;;;;;;3.73;65.56;100127.63;5091295;28;20036;-49
2021/12/19 01:27:05;;;;;;;57.20;25.27;;;;;;;3.69;65.52;100134.00;5091225;28;20032;-48
2021/12/19 01:29:31;;;;;;;57.35;27.75;;;;;;;3.79;66.12;100138.34;5090945;28;20089;-48
2021/12/19 01:31:57;;;;;;;65.88;26.15;;;;;;;3.88;65.59;100138.56;5092400;28;20028;-48
2021/12/19 01:34:23;;;;;;;86.20;27.95;;;;;;;3.85;65.74;100142.22;5092409;28;20028;-49
2021/12/19 01:36:49;;;;;;;72.70;33.67;;;;;;;3.80;65.24;100141.75;5091108;28;20023;-49
2021/12/19 01:39:15;;;;;;;73.05;33.55;;;;;;;3.85;66.18;100142.22;5091076;28;20027;-48
2021/12/19 01:41:53;;;;;;;79.68;28.17;;;;;;;3.99;65.93;100139.38;5090976;28;20489;-48
2021/12/19 01:44:19;;;;;;;82.35;29.98;;;;;;;4.09;65.35;100143.84;5090976;28;20047;-48
2021/12/19 01:46:46;;;;;;;65.28;28.52;;;;;;;4.09;65.24;100142.06;5090837;28;20027;-49
2021/12/19 01:49:17;;;;;;;92.97;45.00;;;;;;;4.09;65.28;100144.66;5090890;28;20035;-49
2021/12/19 01:51:43;;;;;;;79.70;27.85;;;;;;;4.09;65.67;100144.66;5090843;28;20020;-49
2021/12/19 01:54:10;;;;;;;108.78;28.77;;;;;;;4.06;65.50;100139.69;5090760;28;20024;-48
2021/12/19 01:56:37;;;;;;;60.92;28.30;;;;;;;4.04;65.94;100136.38;5090786;28;20056;-48
2021/12/19 01:59:04;;;;;;;58.45;31.27;;;;;;;4.11;65.36;100147.13;5092088;28;20099;-49
2021/12/19 02:01:29;;;;;;;129.25;27.60;;;;;;;4.19;65.15;100142.97;5090661;28;20023;-48
2021/12/19 02:03:55;;;;;;;74.32;28.25;;;;;;;4.14;64.94;100145.09;5090606;28;20028;-49
2021/12/19 02:06:21;;;;;;;77.75;31.38;;;;;;;3.96;64.83;100143.97;5092043;28;20091;-49
2021/12/19 02:08:53;;;;;;;74.82;26.92;;;;;;;3.89;65.44;100151.44;5090628;28;20062;-49
2021/12/19 02:11:19;;;;;;;86.72;28.85;;;;;;;3.88;65.66;100151.53;5092003;28;20020;-48
2021/12/19 02:13:44;;;;;;;78.55;30.98;;;;;;;3.90;65.71;100154.84;5091784;28;20370;-48
2021/12/19 02:16:10;;;;;;;52.50;26.67;;;;;;;4.03;65.79;100165.13;5091895;28;20025;-48
2021/12/19 02:18:37;;;;;;;372.67;34.70;;;;;;;4.08;65.20;100168.16;5090551;28;20024;-48
2021/12/19 02:21:02;;;;;;;61.78;29.48;;;;;;;3.81;65.87;100161.59;5091817;28;20078;-49
2021/12/19 02:23:29;;;;;;;66.53;39.97;;;;;;;3.94;66.89;100158.84;5090832;28;20501;-49
2021/12/19 02:25:56;;;;;;;48.38;26.92;;;;;;;4.10;66.69;100161.88;5090394;28;20028;-49
2021/12/19 02:28:22;;;;;;;79.20;30.10;;;;;;;4.14;65.51;100152.06;5090477;28;20422;-49
2021/12/19 02:30:48;;;;;;;112.30;29.77;;;;;;;4.05;65.80;100155.44;5090185;28;20596;-48
2021/12/19 02:33:20;;;;;;;73.35;29.83;;;;;;;3.90;65.83;100150.47;5090325;28;20020;-48
2021/12/19 02:35:54;;;;;;;49.63;26.95;;;;;;;3.88;66.31;100161.94;5091775;28;20093;-49
2021/12/19 02:49:26;;;;;;;45.22;24.80;;;;;;;4.36;65.03;100145.97;5091919;28;20166;-48
2021/12/19 02:51:53;;;;;;;45.50;24.40;;;;;;;4.52;64.98;100150.75;5091581;28;20031;-49
2021/12/19 02:54:20;;;;;;;72.45;25.75;;;;;;;4.62;64.28;100148.25;5090190;28;20034;-49
2021/12/19 02:56:45;;;;;;;54.55;25.40;;;;;;;4.44;63.56;100145.38;5090202;28;20016;-48
2021/12/19 02:59:11;;;;;;;68.13;25.85;;;;;;;4.20;64.08;100147.22;5090207;28;20032;-48
2021/12/19 03:01:37;;;;;;;39.83;23.23;;;;;;;4.17;64.39;100141.44;5091466;28;20038;-49
2021/12/19 03:04:03;;;;;;;48.28;25.33;;;;;;;4.23;63.56;100140.97;5091403;28;20032;-48
2021/12/19 03:06:29;;;;;;;49.58;27.77;;;;;;;4.10;63.94;100133.31;5090066;28;20054;-48
2021/12/19 03:08:58;;;;;;;42.47;23.25;;;;;;;4.04;64.29;100133.78;5090078;28;20028;-48
2021/12/19 03:12:00;;;;;;;62.15;27.15;;;;;;;4.16;64.33;100127.63;5091345;28;20020;-50
2021/12/19 03:20:00;;;;;;;42.60;24.42;;;;;;;4.29;64.01;100124.06;5071638;28;20050;-50
2021/12/19 03:22:26;;;;;;;47.47;28.30;;;;;;;4.37;63.78;100122.47;5094959;28;20020;-51
2021/12/19 03:24:51;;;;;;;50.67;23.30;;;;;;;4.35;63.50;100118.34;5094963;28;20027;-50
2021/12/19 03:27:17;;;;;;;52.70;25.70;;;;;;;4.20;63.10;100115.22;5093532;28;20021;-51
2021/12/19 03:29:43;;;;;;;53.90;25.45;;;;;;;3.91;63.09;100120.97;5093220;28;20520;-51
2021/12/19 03:32:09;;;;;;;62.38;24.65;;;;;;;3.80;63.78;100120.97;5093371;28;20074;-50
2021/12/19 03:34:35;;;;;;;45.45;22.98;;;;;;;3.76;64.23;100116.97;5093433;28;20020;-51
2021/12/19 03:37:02;;;;;;;52.58;25.67;;;;;;;3.80;64.26;100110.59;5094675;28;20034;-51
2021/12/19 03:39:37;;;;;;;63.88;23.70;;;;;;;3.92;64.10;100114.00;5093390;28;20135;-50
2021/12/19 03:42:04;;;;;;;57.47;30.60;;;;;;;3.81;63.63;100107.06;5094614;28;20035;-51
2021/12/19 03:44:30;;;;;;;47.20;23.77;;;;;;;3.63;63.83;100109.34;5094553;28;20311;-51
2021/12/19 03:46:56;;;;;;;63.25;29.27;;;;;;;3.56;64.56;100102.97;5093194;28;20024;-51
2021/12/19 03:49:22;;;;;;;47.55;27.10;;;;;;;3.62;64.67;100099.88;5093069;28;20020;-51
2021/12/19 03:51:48;;;;;;;63.33;25.15;;;;;;;3.64;64.41;100102.38;5093088;28;20463;-50
2021/12/19 03:54:15;;;;;;;52.72;26.05;;;;;;;3.49;64.25;100096.63;5092956;28;20404;-50
2021/12/19 03:56:40;;;;;;;50.88;26.00;;;;;;;3.34;64.75;100098.63;5093050;28;20024;-51
2021/12/19 03:59:06;;;;;;;48.88;25.23;;;;;;;3.35;65.42;100092.50;5092940;28;20458;-50
2021/12/19 04:01:32;;;;;;;48.95;26.80;;;;;;;3.39;64.84;100094.72;5094280;28;20099;-50
2021/12/19 04:03:58;;;;;;;54.03;25.20;;;;;;;3.44;65.23;100093.53;5092892;28;20078;-50
2021/12/19 04:06:25;;;;;;;55.03;30.75;;;;;;;3.49;65.50;100096.63;5094103;28;20035;-50
2021/12/19 04:08:51;;;;;;;59.63;25.70;;;;;;;3.66;65.10;100090.09;5092839;28;20064;-50
2021/12/19 04:11:17;;;;;;;67.47;26.80;;;;;;;3.73;65.06;100093.88;5094011;28;20020;-49
2021/12/19 04:13:42;;;;;;;64.80;26.05;;;;;;;3.68;64.91;100093.41;5093950;28;20039;-50
2021/12/19 04:16:08;;;;;;;65.40;27.20;;;;;;;3.63;64.72;100091.16;5092654;28;20517;-49
2021/12/19 04:18:34;;;;;;;72.55;27.65;;;;;;;3.69;65.46;100095.88;5093941;28;20020;-50
2021/12/19 04:20:59;;;;;;;67.65;31.15;;;;;;;3.88;65.46;100092.63;5092512;28;20016;-48
2021/12/19 04:23:30;;;;;;;64.75;30.48;;;;;;;4.15;65.32;100087.00;5093835;28;20035;-48
2021/12/19 04:25:57;;;;;;;60.00;26.70;;;;;;;4.39;64.84;100088.56;5093801;28;20043;-48
2021/12/19 04:28:22;;;;;;;48.67;26.83;;;;;;;4.33;65.25;100087.28;5091201;28;20031;-48
2021/12/19 04:30:48;;;;;;;49.92;25.08;;;;;;;4.27;65.34;100093.00;5092146;28;20047;-47
2021/12/19 04:33:14;;;;;;;57.45;26.85;;;;;;;4.14;64.98;100085.34;5092259;28;20511;-48
2021/12/19 04:35:44;;;;;;;75.00;23.30;;;;;;;4.00;65.28;100078.69;5092255;28;20043;-48
2021/12/19 04:52:19;;;;;;;46.78;19.73;;;;;;;4.32;63.29;100064.84;5093303;28;20520;-47
2021/12/19 04:54:57;;;;;;;32.30;20.00;;;;;;;4.29;63.55;100070.28;5093053;28;20105;-49
2021/12/19 05:00:04;;;;;;;51.55;28.80;;;;;;;4.51;62.82;100064.16;5093266;28;20028;-49
2021/12/19 05:16:08;;;;;;;56.85;24.77;;;;;;;3.94;63.79;100083.53;5050311;28;20121;-49
2021/12/19 05:18:37;;;;;;;92.55;39.60;;;;;;;3.84;63.80;100077.44;5050313;28;20384;-48
2021/12/19 05:21:13;;;;;;;112.57;25.40;;;;;;;3.71;64.26;100075.00;5070814;28;20417;-48
2021/12/19 05:24:03;;;;;;;46.60;22.08;;;;;;;3.70;64.93;100071.56;5091413;28;20020;-48
2021/12/19 05:26:24;;;;;;;58.58;26.55;;;;;;;3.78;65.16;100068.34;5092436;28;20498;-47
2021/12/19 05:28:52;;;;;;;89.28;26.10;;;;;;;3.87;64.89;100066.81;5091210;28;20082;-48
2021/12/19 05:31:19;;;;;;;72.25;24.63;;;;;;;3.86;64.97;100067.75;5092571;28;20028;-48
2021/12/19 05:33:46;;;;;;;81.88;24.60;;;;;;;3.89;64.55;100062.31;5092447;28;20477;-48
2021/12/19 05:46:57;;;;;;;80.47;24.23;;;;;;;3.78;64.48;100053.63;5092371;28;20030;-49
2021/12/19 05:49:23;;;;;;;52.20;23.83;;;;;;;3.62;64.36;100055.75;5092330;28;20028;-48
2021/12/19 05:51:49;;;;;;;83.78;26.80;;;;;;;3.49;64.79;100047.31;5092269;28;20059;-48
2021/12/19 05:54:15;;;;;;;55.95;25.38;;;;;;;3.36;65.22;100037.91;5092116;28;20048;-48
2021/12/19 05:56:41;;;;;;;50.47;23.73;;;;;;;3.26;65.28;100031.78;5092136;28;20020;-49
2021/12/19 05:59:08;;;;;;;114.05;25.63;;;;;;;3.08;65.43;100034.03;5092164;28;20024;-48
2021/12/19 06:01:35;;;;;;;39.55;22.42;;;;;;;2.97;65.73;100041.81;5092106;28;20066;-48
2021/12/19 06:04:01;;;;;;;54.35;22.73;;;;;;;2.89;66.10;100036.38;5091957;28;20024;-48
2021/12/19 06:06:27;;;;;;;50.08;23.42;;;;;;;2.88;65.93;100026.94;5092077;28;20013;-48
2021/12/19 06:08:53;;;;;;;46.28;23.35;;;;;;;2.82;66.53;100033.44;5091981;28;20020;-47
2021/12/19 06:11:19;;;;;;;38.80;23.52;;;;;;;2.85;66.35;100038.38;5091955;28;20099;-47
2021/12/19 06:13:45;;;;;;;47.17;22.98;;;;;;;2.77;66.65;100038.13;5091820;28;20111;-47
2021/12/19 06:16:10;;;;;;;75.75;52.30;;;;;;;2.68;66.90;100039.69;5091868;28;20030;-47
2021/12/19 06:18:36;;;;;;;48.03;25.38;;;;;;;2.85;66.84;100037.56;5090594;28;20039;-47
2021/12/19 06:21:02;;;;;;;51.05;23.25;;;;;;;2.98;66.62;100033.09;5091855;28;20477;-46
2021/12/19 06:23:28;;;;;;;46.63;22.35;;;;;;;3.02;66.62;100031.06;5091853;28;20103;-46
2021/12/19 06:25:54;;;;;;;42.33;22.58;;;;;;;3.07;66.17;100036.75;5091749;28;20103;-46
2021/12/19 06:28:21;;;;;;;86.72;61.83;;;;;;;3.15;66.19;100035.19;5090477;28;20032;-46
2021/12/19 06:30:47;;;;;;;43.13;24.77;;;;;;;3.30;66.05;100033.19;5091556;28;20478;-47
2021/12/19 06:33:13;;;;;;;38.58;19.65;;;;;;;3.43;65.04;100034.81;5090360;28;20374;-46
2021/12/19 06:35:39;;;;;;;48.53;24.23;;;;;;;3.40;64.96;100031.53;5091746;28;20020;-47
2021/12/19 06:38:06;;;;;;;36.05;21.50;;;;;;;3.43;64.54;100027.03;5090351;28;20551;-46
2021/12/19 06:40:33;;;;;;;37.97;21.15;;;;;;;3.44;64.79;100028.66;5090369;28;20058;-46
2021/12/19 06:42:59;;;;;;;43.63;23.45;;;;;;;3.40;64.55;100034.13;5090329;28;20054;-47
2021/12/19 06:45:25;;;;;;;41.42;23.25;;;;;;;3.27;64.51;100040.38;5091593;28;20557;-46
2021/12/19 06:47:51;;;;;;;37.22;21.27;;;;;;;3.02;64.46;100031.06;5091601;28;20031;-47
2021/12/19 06:50:18;;;;;;;33.47;20.35;;;;;;;2.98;65.22;100033.09;5091585;28;20024;-46
2021/12/19 06:52:45;;;;;;;35.35;22.70;;;;;;;2.88;64.90;100035.56;5094764;28;20020;-46
2021/12/19 06:55:13;;;;;;;36.58;23.95;;;;;;;2.63;65.54;100022.81;5095522;28;20099;-47
2021/12/19 06:57:39;;;;;;;35.85;22.98;;;;;;;2.29;66.18;100039.09;5094160;28;20048;-46
2021/12/19 07:00:08;;;;;;;43.47;24.95;;;;;;;2.16;67.06;100036.59;5095407;28;20051;-46
2021/12/19 07:02:34;;;;;;;39.55;22.83;;;;;;;2.17;67.15;100025.31;5095415;28;20044;-49
2021/12/19 07:05:00;;;;;;;33.95;22.20;;;;;;;2.35;67.23;100033.47;5095355;28;20101;-49
2021/12/19 07:07:25;;;;;;;40.80;26.05;;;;;;;2.47;66.48;100029.13;5095298;28;20473;-49
2021/12/19 07:09:51;;;;;;;39.78;21.90;;;;;;;2.36;66.74;100032.53;5095235;28;20103;-48
2021/12/19 07:12:17;;;;;;;39.38;24.02;;;;;;;2.49;66.97;100032.44;5095096;28;20028;-50
2021/12/19 07:14:44;;;;;;;41.38;24.65;;;;;;;2.95;66.89;100035.91;5095157;28;20063;-47
2021/12/19 07:17:11;;;;;;;38.38;21.98;;;;;;;3.08;65.76;100031.44;5095086;28;20016;-47
2021/12/19 07:19:37;;;;;;;40.90;23.92;;;;;;;3.23;65.52;100026.00;5095110;28;20090;-47
2021/12/19 07:22:03;;;;;;;38.47;22.35;;;;;;;3.39;64.75;100027.25;5093688;28;20401;-47
2021/12/19 07:24:29;;;;;;;49.03;32.63;;;;;;;3.34;64.59;100029.41;5094955;28;20027;-47
2021/12/19 07:26:55;;;;;;;42.05;23.42;;;;;;;3.25;65.18;100024.94;5094960;28;20522;-47
2021/12/19 07:29:21;;;;;;;34.92;20.02;;;;;;;3.50;65.05;100034.22;5094711;28;20040;-47
2021/12/19 07:31:47;;;;;;;39.47;23.80;;;;;;;3.82;64.61;100037.78;5094784;28;20466;-47
2021/12/19 07:34:13;;;;;;;41.83;23.25;;;;;;;3.95;63.30;100033.25;5094723;28;20032;-47
2021/12/19 07:36:42;;;;;;;34.92;20.42;;;;;;;3.93;63.53;100030.78;5094719;28;20030;-47
2021/12/19 07:39:25;;;;;;;45.58;30.42;;;;;;;3.82;62.44;100027.38;5094697;28;20067;-48
2021/12/19 07:41:51;;;;;;;37.08;23.58;;;;;;;3.39;63.04;100029.84;5094767;28;20047;-47
2021/12/19 07:44:17;;;;;;;34.53;20.95;;;;;;;2.99;64.09;100029.53;5094633;28;20024;-47
2021/12/19 07:46:44;;;;;;;35.50;21.10;;;;;;;2.91;65.01;100017.16;5094537;28;20012;-47
2021/12/19 07:49:10;;;;;;;36.75;20.77;;;;;;;3.13;64.62;100018.09;5094493;28;20027;-47
2021/12/19 07:51:36;;;;;;;38.97;25.35;;;;;;;3.33;64.03;100019.16;5094453;28;20041;-47
2021/12/19 07:54:02;;;;;;;46.38;27.88;;;;;;;3.25;64.33;100022.34;5094363;28;20032;-47
2021/12/19 07:56:28;;;;;;;38.60;23.00;;;;;;;3.31;64.46;100021.03;5094349;28;20154;-48
2021/12/19 07:58:54;;;;;;;38.28;23.90;;;;;;;3.11;63.94;100026.00;5094340;28;20081;-47
2021/12/19 08:01:20;;;;;;;37.13;21.95;;;;;;;3.05;64.64;100025.66;5094307;28;20020;-48
2021/12/19 08:03:46;;;;;;;43.10;25.38;;;;;;;2.90;65.14;100030.28;5093983;28;20039;-47
2021/12/19 08:06:11;;;;;;;36.55;22.55;;;;;;;2.75;64.93;100019.28;5094201;28;20492;-47
2021/12/19 08:08:37;;;;;;;40.70;24.50;;;;;;;2.69;64.93;100017.16;5094133;28;20089;-47
2021/12/19 08:13:47;;;;;;;47.42;28.45;;;;;;;2.64;65.09;100019.28;5094126;28;20065;-49
2021/12/19 08:16:13;;;;;;;44.67;25.83;;;;;;;2.58;65.42;100023.16;5094000;28;20033;-46
2021/12/19 08:18:39;;;;;;;40.97;23.52;;;;;;;2.56;65.64;100017.28;5093963;28;20618;-49
2021/12/19 08:21:05;;;;;;;43.10;23.70;;;;;;;2.82;65.72;100019.63;5093885;28;20098;-47
2021/12/19 08:23:33;;;;;;;41.38;23.77;;;;;;;2.95;65.50;100015.97;5092684;28;20440;-47
2021/12/19 08:25:59;;;;;;;45.42;24.42;;;;;;;3.04;65.53;100016.22;5093789;28;20422;-47
2021/12/19 08:28:25;;;;;;;39.75;23.35;;;;;;;3.20;65.14;100011.50;5093770;28;20020;-48
2021/12/19 08:30:51;;;;;;;41.50;23.58;;;;;;;3.34;64.91;100018.19;5093502;28;20048;-47
2021/12/19 08:33:17;;;;;;;45.17;20.80;;;;;;;3.51;64.90;100009.91;5093584;28;20532;-48
2021/12/19 08:35:42;;;;;;;45.28;25.98;;;;;;;3.70;64.07;100004.06;5092289;28;20032;-48
2021/12/19 08:38:08;;;;;;;46.72;25.48;;;;;;;3.78;64.83;100001.69;5093506;28;20069;-47
2021/12/19 08:40:34;;;;;;;59.35;32.67;;;;;;;3.85;66.06;100003.78;5093776;28;20035;-50
2021/12/19 08:43:00;;;;;;;52.88;26.35;;;;;;;3.79;65.65;100008.50;5093523;28;20404;-50
2021/12/19 08:45:26;;;;;;;46.00;24.50;;;;;;;3.76;66.60;100006.19;5093381;28;20024;-49
2021/12/19 08:47:52;;;;;;;52.55;27.25;;;;;;;3.67;66.12;100006.09;5093454;28;20046;-49
2021/12/19 08:50:18;;;;;;;42.28;24.35;;;;;;;3.70;66.66;100003.22;5093329;28;20485;-49
2021/12/19 08:52:44;;;;;;;482.05;373.55;;;;;;;3.80;65.89;100002.38;5091867;28;20028;-50
2021/12/19 08:55:11;;;;;;;176.15;124.45;;;;;;;3.73;65.69;100003.81;5093445;28;20055;-50
2021/12/19 08:57:38;;;;;;;128.80;98.85;;;;;;;3.78;66.07;100012.06;5093214;28;20017;-50
2021/12/19 09:00:10;;;;;;;68.47;39.33;;;;;;;3.77;65.42;100010.41;5091784;28;20510;-50
2021/12/19 09:02:37;;;;;;;62.47;37.70;;;;;;;3.74;65.59;100004.63;5093172;28;20056;-50
2021/12/19 09:05:03;;;;;;;67.43;37.85;;;;;;;3.85;65.97;100009.78;5093006;28;20031;-50
2021/12/19 09:07:29;;;;;;;49.80;25.70;;;;;;;4.15;65.17;100003.06;5091695;28;20024;-50
2021/12/19 09:09:55;;;;;;;49.53;26.13;;;;;;;4.30;64.52;100009.56;5092945;28;20024;-49
2021/12/19 09:12:21;;;;;;;52.47;27.25;;;;;;;4.43;63.56;100005.94;5092751;28;20027;-50
2021/12/19 09:14:47;;;;;;;56.15;27.25;;;;;;;4.53;64.03;100002.47;5092169;28;20028;-50
2021/12/19 09:17:13;;;;;;;54.33;29.55;;;;;;;4.65;63.44;100007.56;5092811;28;20027;-50
2021/12/19 09:19:39;;;;;;;55.30;30.80;;;;;;;4.73;63.44;100012.97;5091485;28;20020;-50
2021/12/19 09:22:05;;;;;;;56.40;28.13;;;;;;;4.94;63.78;100010.31;5092727;28;20035;-50
2021/12/19 09:24:31;;;;;;;53.60;26.75;;;;;;;5.02;62.59;100000.06;5092706;28;20028;-50
2021/12/19 09:26:56;;;;;;;56.28;27.83;;;;;;;5.04;63.17;99994.72;5092604;28;20032;-51
2021/12/19 09:29:26;;;;;;;59.33;29.33;;;;;;;5.28;63.11;99991.78;5091001;28;20047;-50
2021/12/19 09:31:52;;;;;;;58.03;30.17;;;;;;;5.54;62.34;99992.91;5092583;28;20094;-51
2021/12/19 09:34:17;;;;;;;64.07;34.53;;;;;;;5.62;61.74;99984.44;5092478;28;20378;-50
2021/12/19 09:36:43;;;;;;;90.40;59.10;;;;;;;5.68;61.44;99990.88;5092437;28;20406;-51
2021/12/19 09:39:09;;;;;;;51.60;27.98;;;;;;;5.81;61.07;99994.03;5092476;28;20051;-51
2021/12/19 09:41:42;;;;;;;51.95;27.23;;;;;;;5.89;61.14;99995.94;5092372;28;20127;-50
2021/12/19 09:44:11;;;;;;;53.10;25.70;;;;;;;5.92;60.78;99987.88;5092439;28;20042;-50
2021/12/19 09:46:39;;;;;;;52.22;26.63;;;;;;;5.99;60.54;99981.16;5092371;28;20095;-50
2021/12/19 09:49:12;;;;;;;55.53;31.33;;;;;;;6.04;60.81;99978.97;5092257;28;20537;-50
2021/12/19 09:51:38;;;;;;;53.10;30.15;;;;;;;6.12;60.34;99975.69;5090960;28;20054;-51
2021/12/19 09:54:06;;;;;;;53.13;28.10;;;;;;;6.26;59.53;99982.22;5092243;28;20090;-50
2021/12/19 09:56:33;;;;;;;58.45;27.10;;;;;;;6.39;59.43;99977.53;5090900;28;20056;-50
2021/12/19 09:59:06;;;;;;;56.22;28.98;;;;;;;6.37;58.70;99977.66;5092171;28;20494;-50
2021/12/19 10:01:32;;;;;;;54.67;30.13;;;;;;;6.35;59.06;99979.59;5092105;28;20035;-50
2021/12/19 10:03:58;;;;;;;94.90;63.95;;;;;;;6.39;58.67;99982.75;5092088;28;20028;-50
2021/12/19 10:06:27;;;;;;;54.65;30.42;;;;;;;6.33;58.98;99983.31;5091956;28;20062;-50
2021/12/19 10:09:11;;;;;;;46.53;25.42;;;;;;;6.36;58.65;99980.44;5090684;28;20031;-51
2021/12/19 10:12:25;;;;;;;52.63;27.90;;;;;;;6.47;59.17;99976.81;5090599;28;20024;-50
2021/12/19 10:14:35;;;;;;;52.08;30.73;;;;;;;6.61;58.76;99971.16;5089559;28;20465;-50
2021/12/19 10:17:15;;;;;;;48.67;29.27;;;;;;;6.72;58.53;99967.53;5090585;28;20020;-50
2021/12/19 10:19:43;;;;;;;50.25;26.20;;;;;;;6.60;57.73;99965.13;5090636;28;20055;-51
2021/12/19 10:22:34;;;;;;;45.50;26.00;;;;;;;6.33;58.74;99967.66;5091830;28;20020;-51
2021/12/19 10:25:22;;;;;;;53.65;28.15;;;;;;;6.35;59.44;99969.16;5083621;28;20036;-50
2021/12/19 10:27:53;;;;;;;48.33;27.58;;;;;;;6.54;58.05;99972.66;5094859;28;20110;-50
2021/12/19 10:30:33;;;;;;;48.88;25.48;;;;;;;6.47;57.93;99966.41;5095907;28;20040;-50
2021/12/19 10:33:10;;;;;;;41.38;21.45;;;;;;;6.22;58.83;99968.66;5096054;28;20064;-51
2021/12/19 10:35:42;;;;;;;42.30;24.77;;;;;;;6.32;58.54;99963.44;5095894;28;20016;-51
2021/12/19 10:38:26;;;;;;;40.53;23.15;;;;;;;6.42;57.95;99958.16;5094660;28;20032;-51
2021/12/19 10:41:09;;;;;;;38.03;21.80;;;;;;;6.47;58.49;99959.38;5096151;28;20554;-51
2021/12/19 10:43:44;;;;;;;41.45;24.05;;;;;;;6.60;57.43;99959.09;5094485;28;20043;-51
2021/12/19 10:46:09;;;;;;;35.20;21.00;;;;;;;6.52;56.93;99951.13;5094739;28;20390;-50
2021/12/19 10:48:39;;;;;;;36.38;23.40;;;;;;;6.42;57.15;99953.78;5095674;28;20028;-50
2021/12/19 10:51:12;;;;;;;35.95;24.50;;;;;;;6.49;56.90;99949.63;5095643;28;20073;-51
2021/12/19 10:53:42;;;;;;;39.42;27.92;;;;;;;6.49;57.19;99948.81;5095438;28;20060;-50
2021/12/19 10:56:12;;;;;;;32.72;22.35;;;;;;;6.46;56.75;99943.88;5095386;28;20024;-51
2021/12/19 10:58:44;;;;;;;32.58;21.80;;;;;;;6.35;57.46;99940.47;5095541;28;20036;-51
2021/12/19 11:01:34;;;;;;;32.25;21.20;;;;;;;6.29;57.48;99935.03;5094196;28;20382;-51
2021/12/19 11:04:27;;;;;;;29.67;19.73;;;;;;;6.45;57.59;99932.63;5095801;28;20039;-51
2021/12/19 11:06:58;;;;;;;32.22;19.35;;;;;;;6.55;56.83;99935.22;5092498;28;20039;-51
2021/12/19 11:09:33;;;;;;;32.55;21.10;;;;;;;6.53;56.69;99931.91;5095354;28;20032;-51
2021/12/19 11:12:08;;;;;;;36.40;21.48;;;;;;;6.25;56.95;99933.66;5095317;28;20026;-51
2021/12/19 11:14:47;;;;;;;40.15;24.63;;;;;;;6.25;57.42;99934.47;5095189;28;20027;-50
2021/12/19 11:17:18;;;;;;;58.55;44.17;;;;;;;6.22;57.58;99936.53;5095202;28;20226;-50
2021/12/19 11:19:45;;;;;;;37.17;24.15;;;;;;;6.17;57.44;99935.16;5095148;28;20028;-51
2021/12/19 11:22:12;;;;;;;29.77;17.95;;;;;;;6.13;58.01;99928.59;5095079;28;20032;-50
2021/12/19 11:24:40;;;;;;;30.73;18.85;;;;;;;6.10;57.62;99915.88;5095048;28;20077;-51
2021/12/19 11:27:07;;;;;;;29.20;19.25;;;;;;;6.08;57.37;99917.78;5094986;28;20024;-51
2021/12/19 11:29:33;;;;;;;30.83;18.77;;;;;;;6.06;58.00;99916.28;5093443;28;20079;-51
2021/12/19 11:32:05;;;;;;;35.15;21.20;;;;;;;6.14;57.68;99906.81;5093542;28;20024;-51
2021/12/19 11:34:50;;;;;;;33.10;19.60;;;;;;;6.14;57.77;99900.78;5094864;28;20024;-51
2021/12/19 11:37:23;;;;;;;31.80;18.77;;;;;;;5.98;58.31;99896.97;5094126;28;20031;-51
2021/12/19 11:39:54;;;;;;;35.10;18.90;;;;;;;6.09;58.78;99893.34;5094797;28;20111;-50
2021/12/19 11:42:28;;;;;;;32.10;18.60;;;;;;;6.15;58.54;99881.56;5094798;28;20065;-51
2021/12/19 11:47:48;;;;;;;35.50;19.50;;;;;;;5.90;58.28;99885.56;5094550;28;20389;-50
2021/12/19 11:50:22;;;;;;;35.45;18.63;;;;;;;5.75;58.53;99880.78;5094567;28;20032;-51
2021/12/19 11:52:50;;;;;;;26.98;16.77;;;;;;;5.78;59.16;99872.69;5094513;28;20085;-51
2021/12/19 11:55:22;;;;;;;41.80;26.33;;;;;;;5.83;58.13;99864.44;5094448;28;20035;-50
2021/12/19 11:58:09;;;;;;;30.63;18.25;;;;;;;5.90;58.67;99868.16;5094438;28;20106;-51
2021/12/19 12:00:53;;;;;;;34.05;18.90;;;;;;;5.96;58.15;99853.78;5094297;28;20047;-50
2021/12/19 12:03:21;;;;;;;31.73;17.70;;;;;;;5.88;58.23;99857.06;5092950;28;20099;-51
2021/12/19 12:05:58;;;;;;;31.75;18.48;;;;;;;5.85;58.39;99851.28;5094228;28;20031;-51
2021/12/19 12:08:26;;;;;;;32.47;19.75;;;;;;;5.78;58.44;99844.03;5094242;28;20043;-50
2021/12/19 12:10:59;;;;;;;34.40;19.40;;;;;;;5.72;58.72;99846.41;5094096;28;20020;-51
2021/12/19 12:13:26;;;;;;;32.47;19.83;;;;;;;5.56;58.74;99841.75;5094013;28;20016;-51
2021/12/19 12:16:00;;;;;;;30.33;19.13;;;;;;;5.42;59.02;99837.00;5092737;28;20062;-51
2021/12/19 12:18:34;;;;;;;33.33;18.58;;;;;;;5.39;60.12;99827.66;5094015;28;20039;-51
2021/12/19 12:21:29;;;;;;;38.70;20.92;;;;;;;5.53;59.64;99823.81;5092662;28;20028;-50
2021/12/19 12:24:02;;;;;;;41.97;23.00;;;;;;;5.52;59.52;99819.56;5093940;28;20020;-51
2021/12/19 12:26:47;;;;;;;32.78;21.23;;;;;;;5.66;59.56;99820.91;5092508;28;20036;-50
2021/12/19 12:29:14;;;;;;;29.27;18.65;;;;;;;5.80;58.97;99813.47;5093627;28;20464;-51
2021/12/19 12:31:43;;;;;;;34.00;19.85;;;;;;;5.80;58.86;99808.25;5093754;28;20028;-50
2021/12/19 12:34:10;;;;;;;32.90;19.45;;;;;;;5.73;58.71;99798.53;5093597;28;20031;-51
2021/12/19 12:36:37;;;;;;;28.25;17.23;;;;;;;5.88;58.88;99786.72;5093647;28;20423;-51